createdAt,value
2019-04-14T00:00:29.296Z,21.93
2019-04-14T00:03:37.209Z,22.90
2019-04-14T00:06:09.114Z,22.83
2019-04-14T00:08:39.470Z,24.90
2019-04-14T00:11:10.357Z,23.97
2019-04-14T00:13:41.240Z,21.27
2019-04-14T00:16:11.732Z,22.60
2019-04-14T00:18:42.541Z,22.87
2019-04-14T00:21:12.941Z,22.63
2019-04-14T00:23:43.458Z,21.90
2019-04-14T00:26:29.540Z,22.75
2019-04-14T00:29:19.305Z,23.00
2019-04-14T00:31:52.164Z,22.37
2019-04-14T00:34:59.610Z,24.18
2019-04-14T00:38:08.488Z,24.35
2019-04-14T00:40:41.056Z,25.27
2019-04-14T00:43:28.741Z,26.67
2019-04-14T00:46:01.369Z,27.33
2019-04-14T00:48:32.038Z,29.23
2019-04-14T00:51:02.678Z,29.67
2019-04-14T00:53:32.389Z,27.83
2019-04-14T00:56:02.073Z,30.90
2019-04-14T00:58:32.211Z,30.53
2019-04-14T01:01:02.714Z,30.62
2019-04-14T01:03:33.051Z,31.57
2019-04-14T01:06:03.259Z,30.73
2019-04-14T01:08:33.513Z,32.10
2019-04-14T01:11:03.134Z,32.33
2019-04-14T01:13:33.268Z,32.40
2019-04-14T01:16:09.835Z,32.43
2019-04-14T01:18:35.082Z,32.05
2019-04-14T01:21:04.729Z,32.37
2019-04-14T01:23:34.812Z,31.03
2019-04-14T01:26:05.045Z,32.07
2019-04-14T01:28:35.420Z,31.73
2019-04-14T01:31:05.499Z,31.30
2019-04-14T01:33:55.532Z,30.57
2019-04-14T01:36:25.563Z,31.20
2019-04-14T01:38:55.755Z,30.63
2019-04-14T01:41:26.057Z,31.50
2019-04-14T01:43:56.073Z,32.10
2019-04-14T01:46:28.353Z,31.50
2019-04-14T01:48:56.881Z,31.37
2019-04-14T01:51:30.985Z,32.17
2019-04-14T01:54:02.135Z,31.73
2019-04-14T01:56:49.272Z,30.63
2019-04-14T01:59:19.828Z,32.30
2019-04-14T02:01:56.885Z,32.87
2019-04-14T02:04:26.749Z,32.63
2019-04-14T02:06:57.385Z,32.43
2019-04-14T02:09:27.232Z,33.13
2019-04-14T02:11:57.432Z,31.80
2019-04-14T02:14:27.768Z,32.17
2019-04-14T02:17:00.553Z,31.07
2019-04-14T02:19:28.556Z,32.07
2019-04-14T02:22:00.519Z,30.97
2019-04-14T02:24:30.969Z,33.00
2019-04-14T02:27:01.263Z,33.10
2019-04-14T02:29:31.902Z,33.83
2019-04-14T02:32:43.485Z,34.53
2019-04-14T02:34:57.217Z,34.73
2019-04-14T02:40:03.853Z,35.20
2019-04-14T02:42:46.805Z,35.03
2019-04-14T02:50:08.002Z,33.23
2019-04-14T02:52:46.406Z,34.63
2019-04-14T02:57:43.419Z,35.10
2019-04-14T03:00:19.766Z,34.00
2019-04-14T03:02:44.245Z,35.00
2019-04-14T03:05:17.161Z,33.30
2019-04-14T03:08:23.627Z,33.93
2019-04-14T03:10:55.274Z,33.52
2019-04-14T03:13:21.304Z,34.50
2019-04-14T03:15:59.027Z,34.30
2019-04-14T03:21:30.279Z,33.93
2019-04-14T03:24:07.044Z,32.10
2019-04-14T03:26:34.005Z,33.30
2019-04-14T03:29:08.831Z,32.73
2019-04-14T03:37:31.478Z,30.77
2019-04-14T03:39:46.129Z,32.20
2019-04-14T03:45:22.221Z,34.27
2019-04-14T03:47:24.965Z,32.93
2019-04-14T03:50:00.948Z,35.03
2019-04-14T03:52:31.665Z,35.70
2019-04-14T03:54:52.770Z,35.83
2019-04-14T03:57:06.290Z,35.90
2019-04-14T03:59:36.761Z,34.23
2019-04-14T04:02:07.435Z,36.23
2019-04-14T04:04:38.042Z,33.98
2019-04-14T04:07:08.232Z,35.57
2019-04-14T04:12:57.601Z,32.30
2019-04-14T04:15:41.220Z,32.17
2019-04-14T04:18:15.522Z,31.90
2019-04-14T04:20:50.629Z,33.03
2019-04-14T04:23:25.016Z,31.10
2019-04-14T04:25:59.450Z,29.70
2019-04-14T04:28:36.399Z,30.40
2019-04-14T04:34:18.816Z,28.07
2019-04-14T04:36:59.578Z,27.67
2019-04-14T04:39:38.122Z,27.40
2019-04-14T04:42:09.162Z,27.70
2019-04-14T04:44:39.867Z,26.43
2019-04-14T04:47:09.954Z,27.33
2019-04-14T04:49:40.456Z,26.20
2019-04-14T04:52:30.081Z,27.83
2019-04-14T04:55:00.988Z,26.02
2019-04-14T04:57:30.703Z,26.87
2019-04-14T05:00:00.587Z,26.23
2019-04-14T05:02:30.939Z,26.93
2019-04-14T05:05:58.510Z,27.93
2019-04-14T05:08:28.417Z,27.20
2019-04-14T05:10:59.620Z,26.87
2019-04-14T05:13:31.373Z,25.32
2019-04-14T05:16:02.125Z,27.47
2019-04-14T05:18:31.709Z,26.73
2019-04-14T05:21:01.798Z,27.80
2019-04-14T05:23:32.128Z,26.17
2019-04-14T05:26:02.766Z,26.97
2019-04-14T05:28:33.153Z,25.97
2019-04-14T05:31:03.351Z,26.13
2019-04-14T05:33:53.306Z,25.32
2019-04-14T05:36:24.187Z,25.83
2019-04-14T05:38:54.084Z,24.75
2019-04-14T05:41:24.442Z,24.60
2019-04-14T05:43:58.399Z,24.90
2019-04-14T05:46:25.318Z,25.57
2019-04-14T05:48:55.818Z,24.23
2019-04-14T05:51:26.396Z,25.23
2019-04-14T05:53:56.680Z,25.37
2019-04-14T05:56:27.509Z,24.72
2019-04-14T05:58:58.001Z,24.13
2019-04-14T06:01:27.606Z,25.57
2019-04-14T06:04:16.491Z,26.07
2019-04-14T06:06:47.751Z,25.17
2019-04-14T06:09:17.324Z,24.87
2019-04-14T06:11:46.962Z,25.08
2019-04-14T06:14:35.881Z,26.20
2019-04-14T06:17:05.465Z,26.10
2019-04-14T06:19:54.408Z,26.40
2019-04-14T06:22:23.887Z,26.00
2019-04-14T06:24:53.426Z,25.87
2019-04-14T06:27:22.980Z,24.73
2019-04-14T06:30:08.944Z,26.47
2019-04-14T06:32:40.091Z,25.80
2019-04-14T06:35:27.249Z,25.53
2019-04-14T06:38:05.857Z,25.43
2019-04-14T06:40:39.676Z,25.93
2019-04-14T06:43:11.703Z,26.33
2019-04-14T06:46:00.412Z,26.33
2019-04-14T06:48:29.986Z,26.27
2019-04-14T06:51:18.886Z,26.30
2019-04-14T06:53:48.448Z,25.77
2019-04-14T06:56:18.187Z,26.23
2019-04-14T06:58:47.733Z,25.60
2019-04-14T07:01:17.225Z,23.70
2019-04-14T07:03:46.778Z,24.32
2019-04-14T07:06:16.260Z,25.23
2019-04-14T07:08:46.665Z,26.65
2019-04-14T07:11:16.224Z,27.03
2019-04-14T07:13:48.179Z,25.07
2019-04-14T07:16:16.965Z,25.60
2019-04-14T07:18:46.488Z,27.13
2019-04-14T07:21:16.029Z,26.37
2019-04-14T07:23:47.226Z,27.77
2019-04-14T07:26:16.933Z,26.83
2019-04-14T07:28:56.195Z,28.73
2019-04-14T07:31:22.268Z,29.63
2019-04-14T07:33:51.558Z,32.67
2019-04-14T07:36:23.925Z,29.30
2019-04-14T07:39:07.778Z,28.40
2019-04-14T07:41:44.694Z,27.37
2019-04-14T07:44:15.061Z,26.70
2019-04-14T07:46:46.306Z,28.13
2019-04-14T07:49:33.397Z,27.07
2019-04-14T07:52:05.610Z,27.73
2019-04-14T07:54:54.633Z,26.50
2019-04-14T07:57:28.455Z,28.53
2019-04-14T08:00:08.328Z,29.07
2019-04-14T08:02:39.467Z,28.17
2019-04-14T08:05:10.964Z,26.02
2019-04-14T08:07:40.593Z,27.73
2019-04-14T08:10:10.723Z,26.80
2019-04-14T08:12:40.231Z,28.03
2019-04-14T08:15:10.742Z,26.47
2019-04-14T08:17:40.312Z,27.93
2019-04-14T08:20:09.960Z,26.95
2019-04-14T08:22:39.525Z,27.70
2019-04-14T08:25:09.134Z,28.30
2019-04-14T08:27:38.693Z,27.33
2019-04-14T08:30:09.218Z,28.47
2019-04-14T08:32:38.707Z,25.77
2019-04-14T08:35:08.388Z,27.23
2019-04-14T08:37:37.898Z,27.47
2019-04-14T08:40:07.791Z,26.17
2019-04-14T08:42:44.719Z,26.15
2019-04-14T08:45:15.947Z,26.93
2019-04-14T08:47:47.103Z,26.70
2019-04-14T08:50:18.292Z,27.07
2019-04-14T08:52:52.389Z,26.30
2019-04-14T08:55:26.369Z,26.20
2019-04-14T08:57:57.519Z,26.73
2019-04-14T09:00:29.472Z,26.23
2019-04-14T09:03:13.629Z,27.93
2019-04-14T09:05:42.887Z,28.63
2019-04-14T09:08:14.920Z,26.17
2019-04-14T09:10:49.104Z,27.40
2019-04-14T09:13:18.606Z,25.97
2019-04-14T09:15:48.096Z,26.17
2019-04-14T09:18:17.611Z,23.95
2019-04-14T09:20:52.407Z,25.45
2019-04-14T09:23:18.417Z,25.53
2019-04-14T09:25:47.919Z,25.57
2019-04-14T09:28:17.426Z,24.87
2019-04-14T09:30:46.947Z,24.98
2019-04-14T09:33:16.428Z,24.23
2019-04-14T09:35:45.950Z,22.93
2019-04-14T09:38:15.522Z,23.50
2019-04-14T09:40:45.035Z,23.60
2019-04-14T09:43:14.553Z,24.98
2019-04-14T09:45:44.083Z,23.37
2019-04-14T09:48:13.682Z,24.87
2019-04-14T09:50:43.475Z,21.27
2019-04-14T09:53:13.055Z,21.93
2019-04-14T09:55:42.554Z,18.83
2019-04-14T09:58:12.092Z,20.60
2019-04-14T10:00:41.579Z,19.67
2019-04-14T10:03:11.803Z,19.62
2019-04-14T10:05:41.347Z,19.30
2019-04-14T10:08:10.899Z,19.47
2019-04-14T10:10:40.417Z,18.67
2019-04-14T10:13:09.982Z,19.03
2019-04-14T10:15:40.216Z,19.82
2019-04-14T10:18:09.722Z,20.00
2019-04-14T10:20:39.211Z,18.80
2019-04-14T10:23:08.714Z,20.57
2019-04-14T10:25:38.238Z,21.03
2019-04-14T10:28:08.551Z,20.17
2019-04-14T10:30:38.066Z,17.93
2019-04-14T10:33:07.552Z,18.43
2019-04-14T10:35:37.067Z,19.55
2019-04-14T10:38:06.568Z,20.10
2019-04-14T10:40:36.966Z,20.54
2019-04-14T10:43:06.618Z,19.23
2019-04-14T10:45:36.302Z,20.73
2019-04-14T10:48:05.970Z,18.33
2019-04-14T10:50:35.487Z,19.57
2019-04-14T10:53:06.284Z,20.40
2019-04-14T10:55:35.835Z,18.33
2019-04-14T10:58:05.348Z,19.57
2019-04-14T11:00:34.887Z,19.57
2019-04-14T11:03:04.673Z,20.00
2019-04-14T11:05:39.550Z,18.62
2019-04-14T11:08:09.059Z,20.43
2019-04-14T11:10:38.570Z,21.02
2019-04-14T11:13:08.064Z,20.80
2019-04-14T11:15:37.581Z,20.40
2019-04-14T11:18:07.077Z,20.53
2019-04-14T11:20:37.832Z,21.77
2019-04-14T11:23:07.312Z,20.17
2019-04-14T11:25:36.893Z,25.37
2019-04-14T11:28:06.401Z,22.77
2019-04-14T11:30:35.972Z,21.87
2019-04-14T11:33:07.104Z,21.27
2019-04-14T11:35:38.274Z,21.20
2019-04-14T11:38:10.278Z,20.73
2019-04-14T11:40:44.331Z,22.20
2019-04-14T11:43:13.830Z,23.40
2019-04-14T11:45:43.436Z,24.50
2019-04-14T11:48:12.976Z,24.40
2019-04-14T11:50:42.477Z,23.85
2019-04-14T11:53:12.045Z,20.03
2019-04-14T11:55:41.568Z,21.47
2019-04-14T11:58:11.088Z,22.73
2019-04-14T12:00:42.303Z,27.47
2019-04-14T12:03:28.997Z,22.03
2019-04-14T12:06:00.145Z,34.27
2019-04-14T12:08:47.423Z,23.90
2019-04-14T12:11:16.939Z,31.70
2019-04-14T12:13:46.429Z,21.03
2019-04-14T12:16:15.931Z,19.57
2019-04-14T12:18:45.438Z,20.00
2019-04-14T12:21:14.977Z,19.50
2019-04-14T12:23:44.519Z,21.73
2019-04-14T12:26:14.029Z,20.53
2019-04-14T12:28:43.534Z,20.45
2019-04-14T12:31:13.177Z,21.37
2019-04-14T12:33:42.691Z,20.00
2019-04-14T12:36:13.495Z,20.87
2019-04-14T12:38:42.997Z,20.05
2019-04-14T12:41:17.705Z,20.60
2019-04-14T12:44:04.649Z,21.45
2019-04-14T12:46:47.593Z,21.15
2019-04-14T12:49:21.346Z,21.83
2019-04-14T12:51:53.571Z,19.47
2019-04-14T12:54:23.565Z,19.27
2019-04-14T12:56:53.066Z,20.97
2019-04-14T12:59:23.694Z,21.37
2019-04-14T13:02:11.260Z,20.47
2019-04-14T13:04:40.914Z,20.37
2019-04-14T13:07:10.396Z,20.30
2019-04-14T13:09:40.977Z,20.80
2019-04-14T13:12:10.621Z,19.83
2019-04-14T13:14:40.136Z,20.63
2019-04-14T13:17:09.657Z,20.93
2019-04-14T13:19:39.145Z,19.23
2019-04-14T13:22:09.294Z,20.97
2019-04-14T13:24:38.807Z,21.10
2019-04-14T13:27:08.296Z,20.97
2019-04-14T13:29:37.807Z,21.77
2019-04-14T13:32:07.472Z,21.73
2019-04-14T13:34:37.509Z,21.60
2019-04-14T13:37:07.019Z,23.10
2019-04-14T13:39:36.558Z,21.67
2019-04-14T13:42:06.146Z,23.03
2019-04-14T13:44:35.642Z,21.43
2019-04-14T13:47:05.173Z,22.87
2019-04-14T13:49:34.750Z,22.47
2019-04-14T13:52:04.313Z,22.90
2019-04-14T13:54:34.245Z,21.95
2019-04-14T13:57:03.740Z,23.13
2019-04-14T13:59:34.052Z,21.87
2019-04-14T14:02:03.726Z,21.90
2019-04-14T14:04:34.450Z,22.37
2019-04-14T14:07:04.737Z,21.73
2019-04-14T14:09:34.236Z,20.50
2019-04-14T14:12:05.448Z,22.00
2019-04-14T14:14:37.123Z,21.63
2019-04-14T14:17:24.152Z,21.37
2019-04-14T14:19:55.270Z,20.47
2019-04-14T14:22:35.302Z,20.60
2019-04-14T14:25:06.954Z,20.30
2019-04-14T14:27:36.451Z,20.53
2019-04-14T14:30:09.746Z,21.83
2019-04-14T14:32:39.219Z,20.57
2019-04-14T14:35:09.545Z,20.35
2019-04-14T14:37:39.051Z,20.57
2019-04-14T14:40:08.851Z,19.43
2019-04-14T14:42:38.688Z,19.55
2019-04-14T14:45:10.064Z,20.37
2019-04-14T14:47:41.207Z,20.50
2019-04-14T14:50:21.202Z,20.00
2019-04-14T14:52:50.744Z,21.05
2019-04-14T14:55:20.245Z,20.08
2019-04-14T14:57:49.789Z,20.93
2019-04-14T15:00:34.918Z,20.57
2019-04-14T15:03:04.634Z,21.30
2019-04-14T15:05:34.131Z,19.93
2019-04-14T15:08:04.378Z,20.35
2019-04-14T15:10:33.895Z,20.77
2019-04-14T15:13:03.384Z,19.80
2019-04-14T15:15:32.905Z,20.83
2019-04-14T15:18:02.409Z,21.07
2019-04-14T15:20:32.361Z,20.85
2019-04-14T15:23:01.867Z,19.60
2019-04-14T15:25:31.366Z,20.83
2019-04-14T15:28:00.886Z,22.35
2019-04-14T15:30:30.384Z,22.07
2019-04-14T15:33:00.696Z,20.60
2019-04-14T15:35:30.230Z,19.47
2019-04-14T15:37:59.737Z,19.67
2019-04-14T15:40:29.239Z,18.77
2019-04-14T15:42:58.747Z,19.17
2019-04-14T15:45:28.933Z,20.57
2019-04-14T15:47:59.312Z,19.77
2019-04-14T15:50:28.800Z,20.57
2019-04-14T15:52:58.398Z,20.68
2019-04-14T15:55:28.090Z,21.23
2019-04-14T15:57:59.238Z,21.03
2019-04-14T16:00:46.252Z,21.23
2019-04-14T16:03:20.077Z,20.65
2019-04-14T16:05:56.863Z,20.83
2019-04-14T16:08:27.992Z,20.47
2019-04-14T16:11:04.951Z,20.33
2019-04-14T16:13:36.164Z,21.03
2019-04-14T16:16:08.552Z,20.08
2019-04-14T16:18:46.581Z,19.42
2019-04-14T16:21:17.219Z,20.30
2019-04-14T16:23:50.718Z,19.63
2019-04-14T16:26:20.663Z,21.07
2019-04-14T16:28:54.765Z,20.25
2019-04-14T16:31:37.504Z,21.20
2019-04-14T16:34:17.432Z,21.30
2019-04-14T16:36:51.331Z,20.52
2019-04-14T16:39:20.831Z,20.63
2019-04-14T16:41:50.416Z,21.13
2019-04-14T16:44:19.899Z,20.40
2019-04-14T16:46:49.473Z,20.83
2019-04-14T16:49:19.081Z,21.40
2019-04-14T16:51:52.641Z,21.63
2019-04-14T16:54:26.302Z,21.67
2019-04-14T16:57:12.237Z,21.82
2019-04-14T16:59:41.774Z,21.93
2019-04-14T17:02:11.576Z,21.03
2019-04-14T17:04:41.061Z,20.43
2019-04-14T17:07:10.606Z,19.83
2019-04-14T17:09:40.136Z,19.73
2019-04-14T17:12:09.728Z,20.93
2019-04-14T17:14:44.266Z,20.08
2019-04-14T17:17:28.093Z,19.82
2019-04-14T17:19:59.322Z,20.37
2019-04-14T17:22:39.215Z,21.73
2019-04-14T17:25:10.463Z,20.23
2019-04-14T17:27:47.613Z,19.90
2019-04-14T17:30:25.942Z,19.83
2019-04-14T17:33:01.010Z,20.60
2019-04-14T17:35:32.135Z,19.70
2019-04-14T17:38:06.364Z,20.45
2019-04-14T17:40:38.413Z,20.90
2019-04-14T17:43:21.145Z,20.73
2019-04-14T17:45:52.269Z,21.43
2019-04-14T17:48:39.233Z,20.57
2019-04-14T17:51:27.981Z,20.50
2019-04-14T17:53:59.165Z,21.73
2019-04-14T17:56:33.063Z,21.47
2019-04-14T17:59:20.281Z,21.65
2019-04-14T18:02:00.199Z,21.37
2019-04-14T18:04:31.376Z,22.07
2019-04-14T18:07:02.528Z,22.17
2019-04-14T18:09:39.443Z,21.73
2019-04-14T18:12:16.025Z,21.77
2019-04-14T18:15:01.792Z,22.63
2019-04-14T18:17:35.881Z,23.18
2019-04-14T18:20:09.523Z,22.03
2019-04-14T18:22:39.034Z,22.63
2019-04-14T18:25:09.572Z,22.00
2019-04-14T18:27:40.690Z,22.13
2019-04-14T18:30:12.184Z,22.37
2019-04-14T18:32:53.560Z,22.07
2019-04-14T18:35:40.959Z,22.30
2019-04-14T18:38:17.611Z,21.47
2019-04-14T18:40:48.763Z,21.53
2019-04-14T18:43:34.584Z,22.93
2019-04-14T18:46:05.776Z,25.65
2019-04-14T18:48:36.898Z,27.27
2019-04-14T18:51:08.052Z,28.97
2019-04-14T18:53:40.077Z,24.65
2019-04-14T18:56:11.239Z,23.20
2019-04-14T18:58:58.415Z,22.73
2019-04-14T19:01:30.808Z,22.80
2019-04-14T19:04:02.295Z,21.97
2019-04-14T19:06:31.554Z,22.13
2019-04-14T19:09:01.095Z,22.33
2019-04-14T19:11:36.326Z,22.17
2019-04-14T19:14:07.520Z,22.90
2019-04-14T19:16:41.382Z,23.03
2019-04-14T19:19:11.796Z,22.57
2019-04-14T19:21:41.309Z,22.63
2019-04-14T19:24:10.793Z,23.63
2019-04-14T19:26:40.330Z,23.47
2019-04-14T19:29:10.150Z,23.67
2019-04-14T19:31:40.931Z,23.30
2019-04-14T19:34:10.429Z,23.67
2019-04-14T19:36:39.958Z,22.27
2019-04-14T19:39:13.347Z,23.67
2019-04-14T19:41:42.918Z,23.53
2019-04-14T19:44:12.414Z,24.57
2019-04-14T19:46:42.049Z,23.10
2019-04-14T19:49:11.568Z,24.30
2019-04-14T19:51:41.079Z,23.17
2019-04-14T19:54:10.783Z,23.40
2019-04-14T19:56:40.456Z,24.02
2019-04-14T19:59:10.096Z,23.90
2019-04-14T20:01:39.607Z,23.63
2019-04-14T20:04:09.103Z,23.50
2019-04-14T20:06:38.605Z,23.05
2019-04-14T20:09:08.691Z,23.40
2019-04-14T20:11:38.308Z,22.40
2019-04-14T20:14:07.794Z,22.83
2019-04-14T20:16:41.576Z,22.57
2019-04-14T20:19:15.347Z,22.93
2019-04-14T20:21:50.711Z,24.23
2019-04-14T20:24:21.836Z,24.00
2019-04-14T20:26:52.985Z,24.24
2019-04-14T20:29:24.163Z,24.13
2019-04-14T20:31:55.302Z,23.07
2019-04-14T20:34:24.794Z,21.93
2019-04-14T20:36:54.351Z,22.83
2019-04-14T20:39:25.141Z,23.97
2019-04-14T20:41:54.732Z,22.02
2019-04-14T20:44:24.309Z,23.60
2019-04-14T20:46:53.799Z,23.65
2019-04-14T20:49:23.345Z,23.80
2019-04-14T20:51:52.848Z,23.43
2019-04-14T20:54:22.366Z,23.93
2019-04-14T20:56:52.042Z,22.80
2019-04-14T20:59:21.743Z,22.87
2019-04-14T21:02:08.747Z,23.00
2019-04-14T21:04:40.135Z,23.38
2019-04-14T21:07:12.081Z,22.80
2019-04-14T21:09:49.014Z,22.60
2019-04-14T21:12:23.283Z,23.53
2019-04-14T21:15:04.207Z,24.90
2019-04-14T21:17:37.810Z,23.53
2019-04-14T21:20:09.037Z,23.73
2019-04-14T21:22:42.931Z,24.50
2019-04-14T21:25:12.187Z,25.80
2019-04-14T21:28:01.245Z,24.73
2019-04-14T21:30:32.398Z,24.37
2019-04-14T21:33:01.673Z,25.00
2019-04-14T21:35:42.911Z,25.77
2019-04-14T21:38:16.944Z,25.33
2019-04-14T21:40:48.130Z,24.72
2019-04-14T21:43:17.843Z,26.97
2019-04-14T21:45:47.334Z,27.33
2019-04-14T21:48:16.870Z,29.77
2019-04-14T21:50:46.380Z,25.37
2019-04-14T21:53:15.888Z,26.83
2019-04-14T21:55:45.382Z,27.93
2019-04-14T21:58:25.496Z,27.62
2019-04-14T22:01:19.006Z,27.60
2019-04-14T22:03:56.085Z,29.42
2019-04-14T22:06:36.049Z,29.40
2019-04-14T22:09:09.174Z,28.30
2019-04-14T22:11:39.607Z,28.27
2019-04-14T22:14:09.126Z,29.97
2019-04-14T22:16:39.431Z,30.65
2019-04-14T22:19:09.019Z,30.13
2019-04-14T22:21:38.505Z,30.53
2019-04-14T22:24:08.024Z,29.63
2019-04-14T22:26:37.587Z,28.37
2019-04-14T22:29:07.654Z,29.02
2019-04-14T22:31:37.139Z,28.37
2019-04-14T22:34:06.854Z,28.53
2019-04-14T22:36:36.341Z,29.70
2019-04-14T22:39:08.539Z,27.87
2019-04-14T22:41:40.045Z,27.83
2019-04-14T22:44:09.310Z,28.00
2019-04-14T22:46:38.802Z,29.27
2019-04-14T22:49:08.346Z,29.18
2019-04-14T22:51:37.885Z,29.07
2019-04-14T22:54:07.432Z,28.75
2019-04-14T22:56:39.508Z,28.20
2019-04-14T22:59:08.211Z,28.45
2019-04-14T23:01:39.333Z,29.82
2019-04-14T23:04:18.892Z,29.30
2019-04-14T23:06:58.971Z,28.43
2019-04-14T23:09:44.823Z,28.63
2019-04-14T23:12:18.927Z,28.47
2019-04-14T23:15:06.047Z,28.80
2019-04-14T23:17:37.258Z,30.53
2019-04-14T23:20:17.743Z,29.23
2019-04-14T23:22:47.030Z,29.87
2019-04-14T23:25:16.716Z,29.00
2019-04-14T23:27:46.202Z,29.23
2019-04-14T23:30:15.974Z,29.90
2019-04-14T23:32:45.485Z,29.37
2019-04-14T23:35:15.004Z,29.90
2019-04-14T23:37:44.491Z,29.77
2019-04-14T23:40:14.319Z,28.60
2019-04-14T23:42:43.820Z,29.17
2019-04-14T23:45:13.460Z,30.33
2019-04-14T23:47:42.957Z,30.43
2019-04-14T23:50:12.987Z,31.37
2019-04-14T23:52:42.938Z,30.62
2019-04-14T23:55:12.502Z,32.33
2019-04-14T23:57:42.016Z,31.27
